createdAt,value
2017-01-02T00:00:19.359Z,1008.11
2017-01-02T00:01:30.099Z,1008.18
2017-01-02T00:02:40.832Z,1008.14
2017-01-02T00:03:51.563Z,1008.12
2017-01-02T00:05:02.295Z,1008.14
2017-01-02T00:06:13.008Z,1008.16
2017-01-02T00:07:23.733Z,1008.15
2017-01-02T00:08:34.435Z,1008.16
2017-01-02T00:09:45.176Z,1008.16
2017-01-02T00:10:55.902Z,1008.19
2017-01-02T00:12:06.642Z,1008.24
2017-01-02T00:13:17.388Z,1008.25
2017-01-02T00:14:28.087Z,1008.21
2017-01-02T00:15:38.822Z,1008.27
2017-01-02T00:16:49.519Z,1008.19
2017-01-02T00:18:00.244Z,1008.24
2017-01-02T00:19:10.970Z,1008.26
2017-01-02T00:20:21.690Z,1008.19
2017-01-02T00:21:32.388Z,1008.16
2017-01-02T00:22:43.127Z,1008.18
2017-01-02T00:23:53.844Z,1008.18
2017-01-02T00:25:04.577Z,1008.17
2017-01-02T00:26:15.297Z,1008.25
2017-01-02T00:27:26.041Z,1008.23
2017-01-02T00:28:36.804Z,1008.21
2017-01-02T00:29:47.506Z,1008.24
2017-01-02T00:30:58.195Z,1008.14
2017-01-02T00:32:08.899Z,1008.23
2017-01-02T00:33:19.611Z,1008.24
2017-01-02T00:34:30.348Z,1008.23
2017-01-02T00:35:41.086Z,1008.24
2017-01-02T00:36:51.799Z,1008.2
2017-01-02T00:38:02.529Z,1008.26
2017-01-02T00:39:13.254Z,1008.23
2017-01-02T00:40:23.992Z,1008.2
2017-01-02T00:41:34.684Z,1008.22
2017-01-02T00:42:45.390Z,1008.18
2017-01-02T00:43:56.138Z,1008.17
2017-01-02T00:45:06.880Z,1008.13
2017-01-02T00:46:17.596Z,1008.07
2017-01-02T00:47:28.321Z,1008.08
2017-01-02T00:48:39.020Z,1008.04
2017-01-02T00:49:49.707Z,1008.09
2017-01-02T00:51:00.434Z,1008.08
2017-01-02T00:52:11.172Z,1008.04
2017-01-02T00:53:21.904Z,1008.02
2017-01-02T00:54:32.639Z,1007.97
2017-01-02T00:55:43.336Z,1008.01
2017-01-02T00:56:54.082Z,1007.98
2017-01-02T00:58:04.809Z,1008.02
2017-01-02T00:59:15.547Z,1007.99
2017-01-02T01:00:26.280Z,1008.04
2017-01-02T01:01:36.994Z,1008.01
2017-01-02T01:02:47.693Z,1008.04
2017-01-02T01:03:58.420Z,1008.05
2017-01-02T01:05:09.139Z,1008.09
2017-01-02T01:06:19.881Z,1008.07
2017-01-02T01:07:30.595Z,1008.07
2017-01-02T01:08:41.295Z,1008.02
2017-01-02T01:09:52.016Z,1008.05
2017-01-02T01:11:02.758Z,1008.05
2017-01-02T01:12:13.486Z,1008.01
2017-01-02T01:13:24.204Z,1008.05
2017-01-02T01:14:34.928Z,1008.02
2017-01-02T01:15:45.678Z,1008.01
2017-01-02T01:16:56.420Z,1008.01
2017-01-02T01:18:07.142Z,1008.02
2017-01-02T01:19:17.866Z,1008.03
2017-01-02T01:20:28.601Z,1008.08
2017-01-02T01:21:39.325Z,1008.07
2017-01-02T01:22:50.020Z,1008.07
2017-01-02T01:24:00.746Z,1008.06
2017-01-02T01:25:11.488Z,1007.97
2017-01-02T01:26:22.217Z,1008.03
2017-01-02T01:27:32.964Z,1008
2017-01-02T01:28:43.726Z,1008.04
2017-01-02T01:29:54.443Z,1008.08
2017-01-02T01:31:05.172Z,1008.09
2017-01-02T01:32:15.897Z,1008.06
2017-01-02T01:33:26.636Z,1008.07
2017-01-02T01:34:37.363Z,1008.08
2017-01-02T01:35:48.081Z,1008.12
2017-01-02T01:36:58.805Z,1008.11
2017-01-02T01:38:09.526Z,1008.06
2017-01-02T01:39:20.236Z,1008.07
2017-01-02T01:40:30.961Z,1008.12
2017-01-02T01:41:41.707Z,1008.06
2017-01-02T01:42:52.436Z,1008.06
2017-01-02T01:44:03.174Z,1008.07
2017-01-02T01:45:13.903Z,1008.05
2017-01-02T01:46:24.649Z,1008.11
2017-01-02T01:47:35.395Z,1008.07
2017-01-02T01:48:46.133Z,1008.08
2017-01-02T01:49:56.879Z,1008.04
2017-01-02T01:51:07.604Z,1008.07
2017-01-02T01:52:18.346Z,1008.03
2017-01-02T01:53:29.072Z,1008.07
2017-01-02T01:54:39.796Z,1008.02
2017-01-02T01:55:50.521Z,1008
2017-01-02T01:57:01.237Z,1007.98
2017-01-02T01:58:11.975Z,1007.99
2017-01-02T01:59:22.676Z,1008.03
2017-01-02T02:00:33.422Z,1007.98
2017-01-02T02:01:44.136Z,1008.02
2017-01-02T02:02:54.841Z,1007.97
2017-01-02T02:04:05.585Z,1008.02
2017-01-02T02:05:16.306Z,1008.04
2017-01-02T02:06:27.030Z,1008.03
2017-01-02T02:07:37.816Z,1007.99
2017-01-02T02:08:48.520Z,1008.02
2017-01-02T02:09:59.222Z,1008.02
2017-01-02T02:11:09.931Z,1008.01
2017-01-02T02:12:20.682Z,1007.98
2017-01-02T02:13:31.403Z,1007.98
2017-01-02T02:14:42.127Z,1008.06
2017-01-02T02:15:52.838Z,1008.01
2017-01-02T02:17:03.566Z,1007.99
2017-01-02T02:18:14.280Z,1008.02
2017-01-02T02:19:24.988Z,1008.02
2017-01-02T02:20:35.696Z,1008.05
2017-01-02T02:21:46.405Z,1008.07
2017-01-02T02:22:57.117Z,1008.08
2017-01-02T02:24:07.863Z,1008.08
2017-01-02T02:25:18.584Z,1008.05
2017-01-02T02:26:29.292Z,1008.08
2017-01-02T02:27:40.034Z,1008.03
2017-01-02T02:28:50.780Z,1008.06
2017-01-02T02:30:01.528Z,1008.07
2017-01-02T02:31:12.252Z,1008
2017-01-02T02:32:22.998Z,1008.09
2017-01-02T02:33:33.713Z,1008.02
2017-01-02T02:34:44.435Z,1008.06
2017-01-02T02:35:55.180Z,1008.02
2017-01-02T02:37:06.316Z,1008.02
2017-01-02T02:38:17.047Z,1008.02
2017-01-02T02:39:27.768Z,1008.05
2017-01-02T02:40:38.488Z,1008.06
2017-01-02T02:41:49.179Z,1008.06
2017-01-02T02:42:59.878Z,1008.1
2017-01-02T02:44:10.604Z,1008.09
2017-01-02T02:45:21.321Z,1008.12
2017-01-02T02:46:32.048Z,1008.12
2017-01-02T02:47:43.155Z,1008.12
2017-01-02T02:48:53.861Z,1008.11
2017-01-02T02:50:04.601Z,1008.06
2017-01-02T02:51:15.326Z,1008.07
2017-01-02T02:52:26.023Z,1008.07
2017-01-02T02:53:36.768Z,1008.11
2017-01-02T02:54:47.505Z,1008.08
2017-01-02T02:55:58.227Z,1008.05
2017-01-02T02:57:08.935Z,1008.1
2017-01-02T02:58:19.679Z,1008.11
2017-01-02T02:59:30.451Z,1008.09
2017-01-02T03:00:41.211Z,1008.16
2017-01-02T03:01:51.935Z,1008.14
2017-01-02T03:03:02.659Z,1008.05
2017-01-02T03:04:13.399Z,1008.06
2017-01-02T03:05:24.128Z,1008.06
2017-01-02T03:06:34.841Z,1008.05
2017-01-02T03:07:45.540Z,1008.01
2017-01-02T03:08:56.287Z,1007.98
2017-01-02T03:10:07.008Z,1008.02
2017-01-02T03:11:17.728Z,1007.97
2017-01-02T03:12:28.428Z,1008.01
2017-01-02T03:13:39.174Z,1007.99
2017-01-02T03:14:49.891Z,1008.04
2017-01-02T03:16:00.624Z,1008.01
2017-01-02T03:17:11.363Z,1007.96
2017-01-02T03:18:22.087Z,1007.99
2017-01-02T03:19:32.847Z,1007.95
2017-01-02T03:20:43.543Z,1008.04
2017-01-02T03:21:54.240Z,1008
2017-01-02T03:23:04.960Z,1007.96
2017-01-02T03:24:15.688Z,1007.97
2017-01-02T03:25:26.409Z,1007.98
2017-01-02T03:26:37.123Z,1007.91
2017-01-02T03:27:47.853Z,1007.92
2017-01-02T03:28:58.557Z,1007.87
2017-01-02T03:30:09.287Z,1007.95
2017-01-02T03:31:19.993Z,1007.92
2017-01-02T03:32:30.715Z,1007.95
2017-01-02T03:33:41.478Z,1007.92
2017-01-02T03:34:52.195Z,1007.91
2017-01-02T03:36:02.921Z,1007.86
2017-01-02T03:37:13.645Z,1007.93
2017-01-02T03:38:24.369Z,1007.87
2017-01-02T03:39:35.104Z,1007.92
2017-01-02T03:40:45.828Z,1007.87
2017-01-02T03:41:56.583Z,1007.84
2017-01-02T03:43:07.321Z,1007.89
2017-01-02T03:44:18.063Z,1007.87
2017-01-02T03:45:28.785Z,1007.86
2017-01-02T03:46:39.505Z,1007.91
2017-01-02T03:47:50.205Z,1007.89
2017-01-02T03:49:00.931Z,1007.85
2017-01-02T03:50:11.654Z,1007.88
2017-01-02T03:51:22.372Z,1007.88
2017-01-02T03:52:33.093Z,1007.82
2017-01-02T03:53:43.807Z,1007.79
2017-01-02T03:54:54.512Z,1007.85
2017-01-02T03:56:05.233Z,1007.85
2017-01-02T03:57:15.944Z,1007.8
2017-01-02T03:58:26.672Z,1007.8
2017-01-02T03:59:37.396Z,1007.8
2017-01-02T04:00:48.517Z,1007.74
2017-01-02T04:01:59.239Z,1007.72
2017-01-02T04:03:09.977Z,1007.72
2017-01-02T04:04:20.731Z,1007.77
2017-01-02T04:05:31.476Z,1007.76
2017-01-02T04:06:42.211Z,1007.78
2017-01-02T04:07:52.932Z,1007.82
2017-01-02T04:09:03.665Z,1007.84
2017-01-02T04:10:14.383Z,1007.82
2017-01-02T04:11:25.124Z,1007.8
2017-01-02T04:12:35.827Z,1007.8
2017-01-02T04:13:46.562Z,1007.79
2017-01-02T04:14:57.287Z,1007.85
2017-01-02T04:16:08.034Z,1007.79
2017-01-02T04:17:18.762Z,1007.74
2017-01-02T04:18:29.483Z,1007.74
2017-01-02T04:19:40.192Z,1007.69
2017-01-02T04:20:50.916Z,1007.72
2017-01-02T04:22:01.646Z,1007.69
2017-01-02T04:23:12.387Z,1007.69
2017-01-02T04:24:23.128Z,1007.76
2017-01-02T04:25:33.854Z,1007.84
2017-01-02T04:26:44.604Z,1007.92
2017-01-02T04:27:55.342Z,1007.84
2017-01-02T04:29:06.063Z,1007.89
2017-01-02T04:30:16.782Z,1007.85
2017-01-02T04:31:27.504Z,1007.9
2017-01-02T04:32:38.237Z,1007.85
2017-01-02T04:33:48.954Z,1007.86
2017-01-02T04:34:59.677Z,1007.78
2017-01-02T04:36:10.785Z,1007.77
2017-01-02T04:37:21.490Z,1007.74
2017-01-02T04:38:32.231Z,1007.73
2017-01-02T04:39:42.949Z,1007.75
2017-01-02T04:40:53.730Z,1007.69
2017-01-02T04:42:04.467Z,1007.67
2017-01-02T04:43:15.197Z,1007.68
2017-01-02T04:44:25.933Z,1007.72
2017-01-02T04:45:36.636Z,1007.69
2017-01-02T04:46:47.358Z,1007.62
2017-01-02T04:47:58.070Z,1007.58
2017-01-02T04:49:08.791Z,1007.56
2017-01-02T04:50:19.516Z,1007.57
2017-01-02T04:51:30.218Z,1007.6
2017-01-02T04:52:40.961Z,1007.58
2017-01-02T04:53:51.675Z,1007.57
2017-01-02T04:55:02.428Z,1007.59
2017-01-02T04:56:13.195Z,1007.53
2017-01-02T04:57:23.946Z,1007.53
2017-01-02T04:58:34.695Z,1007.52
2017-01-02T04:59:45.419Z,1007.53
2017-01-02T05:00:56.152Z,1007.5
2017-01-02T05:02:06.879Z,1007.53
2017-01-02T05:03:17.578Z,1007.56
2017-01-02T05:04:28.321Z,1007.46
2017-01-02T05:05:39.060Z,1007.44
2017-01-02T05:06:49.784Z,1007.45
2017-01-02T05:08:00.512Z,1007.42
2017-01-02T05:09:11.257Z,1007.38
2017-01-02T05:10:22.005Z,1007.4
2017-01-02T05:11:32.756Z,1007.4
2017-01-02T05:12:43.460Z,1007.42
2017-01-02T05:13:54.167Z,1007.43
2017-01-02T05:15:04.887Z,1007.45
2017-01-02T05:16:15.631Z,1007.43
2017-01-02T05:17:26.354Z,1007.45
2017-01-02T05:18:37.090Z,1007.46
2017-01-02T05:19:47.818Z,1007.48
2017-01-02T05:20:58.543Z,1007.49
2017-01-02T05:22:09.278Z,1007.45
2017-01-02T05:23:20.006Z,1007.46
2017-01-02T05:24:31.152Z,1007.44
2017-01-02T05:25:41.844Z,1007.49
2017-01-02T05:26:52.601Z,1007.54
2017-01-02T05:28:03.365Z,1007.51
2017-01-02T05:29:14.107Z,1007.53
2017-01-02T05:30:24.857Z,1007.47
2017-01-02T05:31:35.974Z,1007.47
2017-01-02T05:32:46.699Z,1007.45
2017-01-02T05:33:57.420Z,1007.51
2017-01-02T05:35:08.133Z,1007.54
2017-01-02T05:36:18.862Z,1007.57
2017-01-02T05:37:29.608Z,1007.55
2017-01-02T05:38:40.322Z,1007.53
2017-01-02T05:39:51.050Z,1007.49
2017-01-02T05:41:01.767Z,1007.49
2017-01-02T05:42:12.523Z,1007.49
2017-01-02T05:43:23.259Z,1007.5
2017-01-02T05:44:34.005Z,1007.49
2017-01-02T05:45:44.723Z,1007.54
2017-01-02T05:46:55.426Z,1007.52
2017-01-02T05:48:06.139Z,1007.49
2017-01-02T05:49:16.843Z,1007.51
2017-01-02T05:50:27.542Z,1007.56
2017-01-02T05:51:38.281Z,1007.57
2017-01-02T05:52:49.031Z,1007.51
2017-01-02T05:53:59.748Z,1007.56
2017-01-02T05:55:10.476Z,1007.54
2017-01-02T05:56:21.211Z,1007.54
2017-01-02T05:57:31.934Z,1007.52
2017-01-02T05:58:42.653Z,1007.5
2017-01-02T05:59:53.386Z,1007.56
2017-01-02T06:01:04.128Z,1007.54
2017-01-02T06:02:14.874Z,1007.55
2017-01-02T06:03:25.620Z,1007.57
2017-01-02T06:04:36.342Z,1007.61
2017-01-02T06:05:47.083Z,1007.66
2017-01-02T06:06:57.812Z,1007.71
2017-01-02T06:08:08.551Z,1007.69
2017-01-02T06:09:19.276Z,1007.71
2017-01-02T06:10:29.990Z,1007.69
2017-01-02T06:11:40.692Z,1007.73
2017-01-02T06:12:51.392Z,1007.79
2017-01-02T06:14:02.114Z,1007.81
2017-01-02T06:15:12.859Z,1007.8
2017-01-02T06:16:23.604Z,1007.8
2017-01-02T06:17:34.726Z,1007.82
2017-01-02T06:18:45.447Z,1007.82
2017-01-02T06:19:56.164Z,1007.85
2017-01-02T06:21:06.881Z,1007.83
2017-01-02T06:22:17.581Z,1007.82
2017-01-02T06:23:28.319Z,1007.81
2017-01-02T06:24:39.052Z,1007.78
2017-01-02T06:25:49.777Z,1007.77
2017-01-02T06:27:00.507Z,1007.77
2017-01-02T06:28:11.213Z,1007.8
2017-01-02T06:29:21.935Z,1007.77
2017-01-02T06:30:32.682Z,1007.75
2017-01-02T06:31:43.430Z,1007.82
2017-01-02T06:32:54.173Z,1007.79
2017-01-02T06:34:04.891Z,1007.76
2017-01-02T06:35:15.613Z,1007.75
2017-01-02T06:36:26.332Z,1007.79
2017-01-02T06:37:37.058Z,1007.77
2017-01-02T06:38:47.796Z,1007.75
2017-01-02T06:39:58.523Z,1007.71
2017-01-02T06:41:09.237Z,1007.74
2017-01-02T06:42:19.963Z,1007.79
2017-01-02T06:43:30.684Z,1007.83
2017-01-02T06:44:41.422Z,1007.81
2017-01-02T06:45:52.146Z,1007.77
2017-01-02T06:47:03.292Z,1007.78
2017-01-02T06:48:14.042Z,1007.8
2017-01-02T06:49:24.785Z,1007.77
2017-01-02T06:50:35.531Z,1007.75
2017-01-02T06:51:46.256Z,1007.76
2017-01-02T06:52:56.994Z,1007.75
2017-01-02T06:54:07.715Z,1007.74
2017-01-02T06:55:18.447Z,1007.8
2017-01-02T06:56:29.140Z,1007.79
2017-01-02T06:57:39.889Z,1007.77
2017-01-02T06:58:50.628Z,1007.8
2017-01-02T07:00:01.355Z,1007.83
2017-01-02T07:01:12.077Z,1007.87
2017-01-02T07:02:22.811Z,1007.84
2017-01-02T07:03:33.516Z,1007.89
2017-01-02T07:04:44.229Z,1007.86
2017-01-02T07:05:54.932Z,1007.86
2017-01-02T07:07:05.678Z,1007.84
2017-01-02T07:08:16.377Z,1007.79
2017-01-02T07:09:27.100Z,1007.88
2017-01-02T07:10:37.838Z,1007.85
2017-01-02T07:11:48.555Z,1007.85
2017-01-02T07:12:59.279Z,1007.87
2017-01-02T07:14:10.006Z,1007.83
2017-01-02T07:15:20.733Z,1007.84
2017-01-02T07:16:31.450Z,1007.8
2017-01-02T07:17:42.164Z,1007.84
2017-01-02T07:18:52.892Z,1007.84
2017-01-02T07:20:03.637Z,1007.88
2017-01-02T07:21:14.356Z,1007.89
2017-01-02T07:22:25.097Z,1007.94
2017-01-02T07:23:35.814Z,1007.95
2017-01-02T07:24:46.524Z,1007.96
2017-01-02T07:25:57.640Z,1007.94
2017-01-02T07:27:08.364Z,1007.98
2017-01-02T07:28:19.099Z,1007.98
2017-01-02T07:29:29.823Z,1007.85
2017-01-02T07:30:40.530Z,1007.87
2017-01-02T07:31:51.662Z,1007.88
2017-01-02T07:33:02.370Z,1007.92
2017-01-02T07:34:13.091Z,1007.91
2017-01-02T07:35:23.811Z,1007.95
2017-01-02T07:36:34.557Z,1007.97
2017-01-02T07:37:45.318Z,1007.94
2017-01-02T07:38:56.022Z,1007.96
2017-01-02T07:40:06.747Z,1007.98
2017-01-02T07:41:17.488Z,1008.09
2017-01-02T07:42:28.204Z,1008.09
2017-01-02T07:43:38.926Z,1008.13
2017-01-02T07:44:50.047Z,1008.1
2017-01-02T07:46:00.779Z,1008.11
2017-01-02T07:47:11.521Z,1008.13
2017-01-02T07:48:22.259Z,1008.11
2017-01-02T07:49:33.010Z,1008.17
2017-01-02T07:50:43.727Z,1008.13
2017-01-02T07:51:54.455Z,1008.19
2017-01-02T07:53:05.176Z,1008.18
2017-01-02T07:54:15.919Z,1008.13
2017-01-02T07:55:26.616Z,1008.15
2017-01-02T07:56:37.329Z,1008.12
2017-01-02T07:57:48.028Z,1008.16
2017-01-02T07:58:58.774Z,1008.14
2017-01-02T08:00:09.527Z,1008.22
2017-01-02T08:01:20.289Z,1008.27
2017-01-02T08:02:31.046Z,1008.34
2017-01-02T08:03:41.755Z,1008.31
2017-01-02T08:04:52.480Z,1008.3
2017-01-02T08:06:03.208Z,1008.3
2017-01-02T08:07:14.351Z,1008.3
2017-01-02T08:08:25.100Z,1008.3
2017-01-02T08:09:35.847Z,1008.35
2017-01-02T08:10:46.589Z,1008.34
2017-01-02T08:11:57.285Z,1008.33
2017-01-02T08:13:08.027Z,1008.37
2017-01-02T08:14:18.755Z,1008.35
2017-01-02T08:15:29.481Z,1008.39
2017-01-02T08:16:40.229Z,1008.38
2017-01-02T08:17:51.344Z,1008.39
2017-01-02T08:19:02.064Z,1008.39
2017-01-02T08:20:12.799Z,1008.4
2017-01-02T08:21:23.529Z,1008.44
2017-01-02T08:22:34.278Z,1008.47
2017-01-02T08:23:45.025Z,1008.51
2017-01-02T08:24:55.772Z,1008.45
2017-01-02T08:26:06.504Z,1008.48
2017-01-02T08:27:17.226Z,1008.45
2017-01-02T08:28:27.957Z,1008.48
2017-01-02T08:29:38.696Z,1008.46
2017-01-02T08:30:49.422Z,1008.51
2017-01-02T08:32:00.143Z,1008.5
2017-01-02T08:33:10.843Z,1008.42
2017-01-02T08:34:21.587Z,1008.51
2017-01-02T08:35:32.334Z,1008.54
2017-01-02T08:36:43.043Z,1008.54
2017-01-02T08:37:53.776Z,1008.59
2017-01-02T08:39:04.544Z,1008.54
2017-01-02T08:40:15.292Z,1008.54
2017-01-02T08:41:26.003Z,1008.56
2017-01-02T08:42:36.702Z,1008.55
2017-01-02T08:43:47.432Z,1008.53
2017-01-02T08:44:58.168Z,1008.45
2017-01-02T08:46:08.890Z,1008.5
2017-01-02T08:47:19.594Z,1008.49
2017-01-02T08:48:30.315Z,1008.49
2017-01-02T08:49:41.053Z,1008.53
2017-01-02T08:50:51.783Z,1008.56
2017-01-02T08:52:02.495Z,1008.6
2017-01-02T08:53:13.221Z,1008.61
2017-01-02T08:54:23.943Z,1008.65
2017-01-02T08:55:34.644Z,1008.7
2017-01-02T08:56:45.384Z,1008.69
2017-01-02T08:57:56.134Z,1008.69
2017-01-02T08:59:06.843Z,1008.68
2017-01-02T09:00:17.572Z,1008.69
2017-01-02T09:01:28.309Z,1008.71
2017-01-02T09:02:39.009Z,1008.75
2017-01-02T09:03:49.730Z,1008.71
2017-01-02T09:05:00.458Z,1008.77
2017-01-02T09:06:11.194Z,1008.76
2017-01-02T09:07:21.918Z,1008.76
2017-01-02T09:08:32.671Z,1008.79
2017-01-02T09:09:43.410Z,1008.8
2017-01-02T09:10:54.135Z,1008.84
2017-01-02T09:12:04.886Z,1008.85
2017-01-02T09:13:15.620Z,1008.9
2017-01-02T09:14:26.379Z,1008.92
2017-01-02T09:15:37.096Z,1008.93
2017-01-02T09:16:47.799Z,1008.94
2017-01-02T09:17:58.514Z,1008.95
2017-01-02T09:19:09.236Z,1009.01
2017-01-02T09:20:19.971Z,1009.05
2017-01-02T09:21:30.676Z,1008.99
2017-01-02T09:22:41.438Z,1009.03
2017-01-02T09:23:52.185Z,1009.06
2017-01-02T09:25:02.905Z,1009.08
2017-01-02T09:26:13.610Z,1009.08
2017-01-02T09:27:24.354Z,1009.09
2017-01-02T09:28:35.096Z,1009.09
2017-01-02T09:29:45.825Z,1009.1
2017-01-02T09:30:56.543Z,1009.09
2017-01-02T09:32:07.670Z,1009.11
2017-01-02T09:33:18.385Z,1009.17
2017-01-02T09:34:29.107Z,1009.09
2017-01-02T09:35:39.856Z,1009.02
2017-01-02T09:36:50.576Z,1009.13
2017-01-02T09:38:01.312Z,1009.09
2017-01-02T09:39:12.390Z,1009.12
2017-01-02T09:40:23.115Z,1009.1
2017-01-02T09:41:33.859Z,1009.09
2017-01-02T09:42:44.578Z,1009.06
2017-01-02T09:43:55.282Z,1009.12
2017-01-02T09:45:05.991Z,1009.07
2017-01-02T09:46:16.709Z,1009.07
2017-01-02T09:47:27.408Z,1009.04
2017-01-02T09:48:38.128Z,1009.01
2017-01-02T09:49:48.854Z,1009.03
2017-01-02T09:50:59.546Z,1009
2017-01-02T09:52:10.296Z,1009
2017-01-02T09:53:21.021Z,1009.02
2017-01-02T09:54:31.766Z,1009.04
2017-01-02T09:55:42.509Z,1009.01
2017-01-02T09:56:53.233Z,1008.96
2017-01-02T09:58:03.972Z,1008.98
2017-01-02T09:59:14.697Z,1008.95
2017-01-02T10:00:25.423Z,1009.04
2017-01-02T10:01:36.144Z,1009.06
2017-01-02T10:02:46.883Z,1009.13
2017-01-02T10:03:57.606Z,1009.18
2017-01-02T10:05:08.319Z,1009.11
2017-01-02T10:06:19.015Z,1009.05
2017-01-02T10:07:29.741Z,1009.06
2017-01-02T10:08:40.469Z,1009.07
2017-01-02T10:09:51.190Z,1009.04
2017-01-02T10:11:01.907Z,1009.04
2017-01-02T10:12:12.653Z,1009.03
2017-01-02T10:13:23.354Z,1009.02
2017-01-02T10:14:34.098Z,1009.02
2017-01-02T10:15:44.872Z,1008.99
2017-01-02T10:16:55.621Z,1008.96
2017-01-02T10:18:06.355Z,1009
2017-01-02T10:19:17.072Z,1008.98
2017-01-02T10:20:27.793Z,1008.97
2017-01-02T10:21:38.518Z,1009.03
2017-01-02T10:22:49.593Z,1009.05
2017-01-02T10:24:00.334Z,1009.07
2017-01-02T10:25:11.063Z,1009.02
2017-01-02T10:26:21.748Z,1009
2017-01-02T10:27:32.447Z,1009.01
2017-01-02T10:28:43.140Z,1008.98
2017-01-02T10:29:53.861Z,1009
2017-01-02T10:31:04.582Z,1009
2017-01-02T10:32:15.317Z,1008.99
2017-01-02T10:33:26.036Z,1008.96
2017-01-02T10:34:36.778Z,1008.94
2017-01-02T10:35:47.523Z,1008.95
2017-01-02T10:36:58.248Z,1008.98
2017-01-02T10:38:08.966Z,1008.97
2017-01-02T10:39:19.708Z,1008.91
2017-01-02T10:40:30.411Z,1008.83
2017-01-02T10:41:41.179Z,1008.83
2017-01-02T10:42:51.909Z,1008.81
2017-01-02T10:44:02.638Z,1008.75
2017-01-02T10:45:13.350Z,1008.75
2017-01-02T10:46:24.072Z,1008.76
2017-01-02T10:47:34.812Z,1008.73
2017-01-02T10:48:45.549Z,1008.72
2017-01-02T10:49:56.279Z,1008.77
2017-01-02T10:51:07.002Z,1008.81
2017-01-02T10:52:17.748Z,1008.74
2017-01-02T10:53:28.465Z,1008.76
2017-01-02T10:54:39.185Z,1008.74
2017-01-02T10:55:49.927Z,1008.66
2017-01-02T10:57:00.655Z,1008.7
2017-01-02T10:58:11.427Z,1008.68
2017-01-02T10:59:22.161Z,1008.66
2017-01-02T11:00:32.893Z,1008.69
2017-01-02T11:01:43.633Z,1008.69
2017-01-02T11:02:54.357Z,1008.67
2017-01-02T11:04:05.106Z,1008.63
2017-01-02T11:05:15.830Z,1008.7
2017-01-02T11:06:26.565Z,1008.7
2017-01-02T11:07:37.308Z,1008.66
2017-01-02T11:08:48.034Z,1008.7
2017-01-02T11:09:58.786Z,1008.72
2017-01-02T11:11:09.880Z,1008.74
2017-01-02T11:12:20.600Z,1008.71
2017-01-02T11:13:31.342Z,1008.68
2017-01-02T11:14:42.092Z,1008.68
2017-01-02T11:15:52.791Z,1008.7
2017-01-02T11:17:03.530Z,1008.67
2017-01-02T11:18:14.248Z,1008.69
2017-01-02T11:19:24.981Z,1008.66
2017-01-02T11:20:35.715Z,1008.65
2017-01-02T11:21:46.447Z,1008.64
2017-01-02T11:22:57.164Z,1008.65
2017-01-02T11:24:08.252Z,1008.68
2017-01-02T11:25:18.977Z,1008.71
2017-01-02T11:26:29.682Z,1008.76
2017-01-02T11:27:40.419Z,1008.76
2017-01-02T11:28:51.172Z,1008.79
2017-01-02T11:30:01.907Z,1008.75
2017-01-02T11:31:12.657Z,1008.8
2017-01-02T11:32:23.386Z,1008.74
2017-01-02T11:33:34.128Z,1008.75
2017-01-02T11:34:44.842Z,1008.82
2017-01-02T11:35:55.573Z,1008.8
2017-01-02T11:37:06.312Z,1008.76
2017-01-02T11:38:17.037Z,1008.8
2017-01-02T11:39:27.758Z,1008.82
2017-01-02T11:40:38.525Z,1008.82
2017-01-02T11:41:49.250Z,1008.81
2017-01-02T11:42:59.995Z,1008.83
2017-01-02T11:44:10.721Z,1008.82
2017-01-02T11:45:21.481Z,1008.84
2017-01-02T11:46:32.210Z,1008.84
2017-01-02T11:47:42.935Z,1008.8
2017-01-02T11:48:53.661Z,1008.84
2017-01-02T11:50:04.375Z,1008.8
2017-01-02T11:51:15.111Z,1008.74
2017-01-02T11:52:25.843Z,1008.87
2017-01-02T11:53:36.528Z,1008.83
2017-01-02T11:54:47.230Z,1008.81
2017-01-02T11:55:57.958Z,1008.76
2017-01-02T11:57:08.701Z,1008.86
2017-01-02T11:58:19.419Z,1008.88
2017-01-02T11:59:30.140Z,1008.91
2017-01-02T12:00:40.889Z,1008.99
2017-01-02T12:01:51.610Z,1008.91
2017-01-02T12:03:02.349Z,1008.89
2017-01-02T12:04:13.101Z,1008.89
2017-01-02T12:05:23.830Z,1008.86
2017-01-02T12:06:34.566Z,1008.87
2017-01-02T12:07:45.287Z,1008.9
2017-01-02T12:08:56.038Z,1008.93
2017-01-02T12:10:06.757Z,1008.95
2017-01-02T12:11:17.471Z,1008.92
2017-01-02T12:12:28.192Z,1008.91
2017-01-02T12:13:38.896Z,1008.92
2017-01-02T12:14:49.630Z,1008.96
2017-01-02T12:16:00.368Z,1008.97
2017-01-02T12:17:11.105Z,1008.96
2017-01-02T12:18:21.832Z,1008.94
2017-01-02T12:19:32.547Z,1008.92
2017-01-02T12:20:43.247Z,1008.95
2017-01-02T12:21:53.968Z,1008.96
2017-01-02T12:23:04.685Z,1008.95
2017-01-02T12:24:15.424Z,1008.99
2017-01-02T12:25:26.158Z,1008.92
2017-01-02T12:26:36.891Z,1008.94
2017-01-02T12:27:47.616Z,1008.95
2017-01-02T12:28:58.346Z,1008.97
2017-01-02T12:30:09.092Z,1009
2017-01-02T12:31:19.836Z,1008.96
2017-01-02T12:32:30.581Z,1009
2017-01-02T12:33:41.292Z,1009.01
2017-01-02T12:34:51.995Z,1009.04
2017-01-02T12:36:02.719Z,1009.06
2017-01-02T12:37:13.466Z,1009.1
2017-01-02T12:38:24.204Z,1009.08
2017-01-02T12:39:34.930Z,1009.16
2017-01-02T12:40:45.668Z,1009.08
2017-01-02T12:41:56.417Z,1009.12
2017-01-02T12:43:07.146Z,1009.21
2017-01-02T12:44:17.881Z,1009.12
2017-01-02T12:45:28.609Z,1009.18
2017-01-02T12:46:39.305Z,1009.16
2017-01-02T12:47:50.044Z,1009.24
2017-01-02T12:49:00.776Z,1009.25
2017-01-02T12:50:11.522Z,1009.27
2017-01-02T12:51:22.235Z,1009.22
2017-01-02T12:52:32.956Z,1009.25
2017-01-02T12:53:43.701Z,1009.28
2017-01-02T12:54:54.432Z,1009.23
2017-01-02T12:56:05.148Z,1009.21
2017-01-02T12:57:15.861Z,1009.2
2017-01-02T12:58:26.586Z,1009.22
2017-01-02T12:59:37.339Z,1009.28
2017-01-02T13:00:48.057Z,1009.27
2017-01-02T13:01:58.803Z,1009.32
2017-01-02T13:03:09.520Z,1009.37
2017-01-02T13:04:20.270Z,1009.4
2017-01-02T13:05:30.987Z,1009.43
2017-01-02T13:06:41.716Z,1009.44
2017-01-02T13:07:52.454Z,1009.5
2017-01-02T13:09:03.207Z,1009.56
2017-01-02T13:10:13.926Z,1009.51
2017-01-02T13:11:24.645Z,1009.52
2017-01-02T13:12:35.374Z,1009.55
2017-01-02T13:13:46.089Z,1009.51
2017-01-02T13:14:56.813Z,1009.57
2017-01-02T13:16:07.534Z,1009.56
2017-01-02T13:17:18.276Z,1009.57
2017-01-02T13:18:29.001Z,1009.62
2017-01-02T13:19:39.726Z,1009.61
2017-01-02T13:20:50.463Z,1009.64
2017-01-02T13:22:01.207Z,1009.62
2017-01-02T13:23:11.935Z,1009.67
2017-01-02T13:24:22.651Z,1009.65
2017-01-02T13:25:33.376Z,1009.68
2017-01-02T13:26:44.121Z,1009.68
2017-01-02T13:27:54.835Z,1009.69
2017-01-02T13:29:05.589Z,1009.68
2017-01-02T13:30:16.337Z,1009.68
2017-01-02T13:31:27.081Z,1009.69
2017-01-02T13:32:37.802Z,1009.73
2017-01-02T13:33:48.523Z,1009.8
2017-01-02T13:34:59.303Z,1009.74
2017-01-02T13:36:10.033Z,1009.78
2017-01-02T13:37:20.728Z,1009.76
2017-01-02T13:38:31.474Z,1009.84
2017-01-02T13:39:42.220Z,1009.9
2017-01-02T13:40:52.941Z,1009.9
2017-01-02T13:42:03.689Z,1009.95
2017-01-02T13:43:14.445Z,1009.96
2017-01-02T13:44:25.158Z,1009.94
2017-01-02T13:45:35.899Z,1009.97
2017-01-02T13:46:46.600Z,1009.96
2017-01-02T13:47:57.321Z,1010.01
2017-01-02T13:49:08.067Z,1009.99
2017-01-02T13:50:18.813Z,1010
2017-01-02T13:51:29.554Z,1010.07
2017-01-02T13:52:40.280Z,1010.06
2017-01-02T13:53:51.005Z,1010.04
2017-01-02T13:55:01.722Z,1010.03
2017-01-02T13:56:12.822Z,1010.03
2017-01-02T13:57:23.560Z,1010.08
2017-01-02T13:58:34.284Z,1010.13
2017-01-02T13:59:44.984Z,1010.14
2017-01-02T14:00:55.734Z,1010.09
2017-01-02T14:02:06.466Z,1010.1
2017-01-02T14:03:17.198Z,1010.13
2017-01-02T14:04:27.914Z,1010.16
2017-01-02T14:05:38.635Z,1010.14
2017-01-02T14:06:49.359Z,1010.12
2017-01-02T14:08:00.095Z,1010.17
2017-01-02T14:09:10.791Z,1010.19
2017-01-02T14:10:21.519Z,1010.18
2017-01-02T14:11:32.261Z,1010.19
2017-01-02T14:12:42.966Z,1010.2
2017-01-02T14:13:53.708Z,1010.17
2017-01-02T14:15:04.446Z,1010.24
2017-01-02T14:16:15.156Z,1010.22
2017-01-02T14:17:25.896Z,1010.25
2017-01-02T14:18:36.644Z,1010.28